Time;durP1;ratioP1;P1;durP2;ratioP2;P2;SDS_P1;SDS_P2;PMS_P1;PMS_P2;Temp;Humidity;BMP_temperature;BMP_pressure;BME280_temperature;BME280_humidity;BME280_pressure;Samples;Min_cycle;Max_cycle;Signal;HPM_P1;HPM_P2
2024/01/23 00:01:57;;;;;;;101.70;36.47;;;;;;;-0.60;100.00;101008.94;5136052;27;20086;-47
2024/01/23 00:04:27;;;;;;;98.18;36.95;;;;;;;-0.60;100.00;101000.22;5135913;27;20548;-48
2024/01/23 00:06:58;;;;;;;102.30;35.57;;;;;;;-0.78;100.00;101026.47;5134968;27;20053;-49
2024/01/23 00:09:27;;;;;;;98.40;36.25;;;;;;;-0.76;100.00;101020.38;5134813;27;20046;-46
2024/01/23 00:11:56;;;;;;;106.15;36.88;;;;;;;-0.61;100.00;101014.19;5134445;27;20047;-46
2024/01/23 00:14:25;;;;;;;99.50;35.17;;;;;;;-0.79;100.00;100999.38;5133726;27;20127;-48
2024/01/23 00:16:56;;;;;;;96.63;34.55;;;;;;;-0.88;100.00;101015.13;5134987;27;20060;-47
2024/01/23 00:19:28;;;;;;;99.10;36.50;;;;;;;-0.89;100.00;101005.53;5135005;27;20134;-48
2024/01/23 00:21:57;;;;;;;90.22;34.67;;;;;;;-0.87;100.00;101006.38;5133323;27;20046;-45
2024/01/23 00:24:27;;;;;;;96.90;34.25;;;;;;;-0.91;100.00;101015.13;5134406;27;20180;-47
2024/01/23 00:26:58;;;;;;;100.47;34.78;;;;;;;-0.68;100.00;101023.81;5134384;27;20058;-48
2024/01/23 00:29:26;;;;;;;96.10;36.33;;;;;;;-0.75;100.00;101006.38;5134314;27;20508;-47
2024/01/23 00:31:55;;;;;;;99.57;35.35;;;;;;;-0.86;100.00;100992.44;5134536;27;20054;-46
2024/01/23 00:34:24;;;;;;;98.97;35.63;;;;;;;-0.81;100.00;100990.66;5134960;27;20050;-47
2024/01/23 00:36:53;;;;;;;100.55;35.08;;;;;;;-0.83;100.00;100996.78;5134209;27;20523;-47
2024/01/23 00:39:23;;;;;;;94.65;34.17;;;;;;;-0.70;100.00;100986.28;5134388;27;20047;-48
2024/01/23 00:41:54;;;;;;;94.63;34.47;;;;;;;-0.70;100.00;100986.28;5134070;27;20385;-48
2024/01/23 00:44:24;;;;;;;97.03;35.63;;;;;;;-0.87;100.00;100956.63;5134463;27;20039;-50
2024/01/23 00:46:52;;;;;;;99.00;35.55;;;;;;;-0.81;100.00;100967.09;5132756;27;20465;-47
2024/01/23 00:49:21;;;;;;;91.57;34.50;;;;;;;-0.71;100.00;100960.94;5134438;27;20065;-48
2024/01/23 00:51:50;;;;;;;98.97;35.65;;;;;;;-0.62;100.00;100966.16;5134072;27;20043;-47
2024/01/23 00:54:20;;;;;;;98.22;36.38;;;;;;;-0.77;100.00;100966.22;5134037;27;20042;-46
2024/01/23 00:56:49;;;;;;;99.65;35.20;;;;;;;-0.51;100.00;100989.72;5134892;27;20354;-47
2024/01/23 00:59:19;;;;;;;99.38;36.33;;;;;;;-0.34;100.00;100997.53;5134514;27;20079;-47
2024/01/23 01:01:47;;;;;;;98.90;35.80;;;;;;;-0.26;100.00;100993.13;5134297;27;20210;-47
2024/01/23 01:04:18;;;;;;;98.53;34.22;;;;;;;-0.21;100.00;100998.34;5133864;27;20480;-47
2024/01/23 01:06:47;;;;;;;91.90;34.20;;;;;;;-0.16;100.00;101000.06;5134132;27;20039;-49
2024/01/23 01:09:16;;;;;;;100.13;35.20;;;;;;;-0.07;100.00;101002.66;5133667;27;20057;-47
2024/01/23 01:11:46;;;;;;;96.53;33.30;;;;;;;-0.05;100.00;101000.88;5133691;27;20050;-46
2024/01/23 01:14:14;;;;;;;94.97;33.65;;;;;;;-0.14;100.00;100995.69;5132689;27;20494;-47
2024/01/23 01:16:43;;;;;;;96.10;34.65;;;;;;;-0.32;100.00;100994.00;5133661;27;20055;-46
2024/01/23 01:19:11;;;;;;;99.15;34.60;;;;;;;-0.23;100.00;100985.25;5133560;27;20491;-47
2024/01/23 01:21:40;;;;;;;91.32;33.40;;;;;;;-0.44;100.00;100993.19;5134131;27;20039;-47
2024/01/23 01:24:08;;;;;;;85.75;30.83;;;;;;;-0.66;100.00;100990.66;5134320;27;20389;-46
2024/01/23 01:26:38;;;;;;;87.10;33.35;;;;;;;-0.64;100.00;100978.41;5134554;27;20099;-46
2024/01/23 01:29:08;;;;;;;84.55;32.20;;;;;;;-0.55;100.00;100981.88;5134073;27;20082;-49
2024/01/23 01:31:36;;;;;;;93.00;33.45;;;;;;;-0.39;100.00;100984.41;5132265;27;20183;-47
2024/01/23 01:34:05;;;;;;;89.15;31.88;;;;;;;-0.42;100.00;100989.69;5133712;27;20076;-47
2024/01/23 01:36:33;;;;;;;91.30;32.88;;;;;;;-0.45;100.00;100975.72;5133926;27;20043;-55
2024/01/23 01:39:03;;;;;;;93.50;34.45;;;;;;;-0.68;100.00;100971.41;5134701;27;20181;-47
2024/01/23 01:41:32;;;;;;;93.72;33.50;;;;;;;-0.66;100.00;100982.78;5134177;27;20047;-47
2024/01/23 01:44:00;;;;;;;91.70;34.58;;;;;;;-0.85;100.00;100973.22;5134131;27;20055;-46
2024/01/23 01:46:33;;;;;;;90.45;33.92;;;;;;;-0.80;100.00;100966.22;5136295;27;20043;-50
2024/01/23 01:49:02;;;;;;;85.07;32.20;;;;;;;-0.87;100.00;100970.63;5138921;27;20047;-47
2024/01/23 01:51:31;;;;;;;91.40;34.92;;;;;;;-0.62;100.00;100960.94;5141851;27;20047;-51
2024/01/23 01:54:00;;;;;;;90.78;32.78;;;;;;;-0.45;100.00;100962.63;5139237;27;20104;-47
2024/01/23 01:56:31;;;;;;;90.20;32.15;;;;;;;-0.42;100.00;100962.59;5138672;27;20091;-47
2024/01/23 01:59:02;;;;;;;93.07;34.58;;;;;;;-0.54;100.00;100952.16;5137446;27;20051;-47
2024/01/23 02:01:35;;;;;;;95.38;33.72;;;;;;;-0.35;100.00;100959.09;5138377;27;20057;-47
2024/01/23 02:04:05;;;;;;;94.38;33.97;;;;;;;-0.24;100.00;100957.28;5138673;27;20046;-54
2024/01/23 02:06:35;;;;;;;93.25;32.85;;;;;;;-0.24;100.00;100952.03;5136460;27;20080;-47
2024/01/23 02:09:04;;;;;;;101.75;34.63;;;;;;;-0.43;100.00;100950.38;5137764;27;20047;-47
2024/01/23 02:11:33;;;;;;;95.30;33.45;;;;;;;-0.46;100.00;100945.16;5137266;27;20043;-48
2024/01/23 02:14:01;;;;;;;90.95;34.00;;;;;;;-0.38;100.00;100938.13;5136463;27;20047;-48
2024/01/23 02:16:31;;;;;;;85.85;31.77;;;;;;;-0.53;100.00;100938.19;5138927;27;20086;-48
2024/01/23 02:19:00;;;;;;;99.88;34.60;;;;;;;-0.40;100.00;100926.75;5139798;27;20135;-45
2024/01/23 02:21:29;;;;;;;90.63;33.50;;;;;;;-0.26;100.00;100934.56;5137341;27;20063;-49
2024/01/23 02:23:58;;;;;;;90.97;33.45;;;;;;;-0.22;100.00;100934.53;5138284;27;20036;-48
2024/01/23 02:26:27;;;;;;;91.78;33.22;;;;;;;-0.28;100.00;100929.34;5139755;27;20059;-48
2024/01/23 02:28:55;;;;;;;91.97;33.38;;;;;;;-0.18;100.00;100933.66;5138847;28;20050;-49
2024/01/23 02:31:24;;;;;;;95.07;34.40;;;;;;;-0.25;100.00;100929.31;5138218;28;20039;-47
2024/01/23 02:33:52;;;;;;;92.13;34.42;;;;;;;-0.39;100.00;100936.38;5138427;28;20059;-47
2024/01/23 02:36:21;;;;;;;91.70;34.03;;;;;;;-0.61;100.00;100946.94;5140530;27;20047;-47
2024/01/23 02:38:50;;;;;;;96.18;35.47;;;;;;;-0.39;100.00;100949.47;5140346;27;20047;-48
2024/01/23 02:41:23;;;;;;;91.15;33.45;;;;;;;-0.40;100.00;100947.72;5139311;27;20059;-47
2024/01/23 02:43:52;;;;;;;99.47;37.03;;;;;;;-0.12;100.00;100943.22;5139263;27;20133;-48
2024/01/23 02:46:20;;;;;;;98.75;34.97;;;;;;;-0.18;100.00;100931.03;5143542;27;20043;-47
2024/01/23 02:48:51;;;;;;;93.78;34.38;;;;;;;-0.15;100.00;100930.13;5143858;27;20554;-47
2024/01/23 02:51:20;;;;;;;97.50;34.85;;;;;;;-0.03;100.00;100941.41;5144226;27;20047;-47
2024/01/23 02:53:51;;;;;;;95.68;33.35;;;;;;;-0.07;100.00;100950.19;5142805;27;20043;-48
2024/01/23 02:56:19;;;;;;;101.15;36.05;;;;;;;-0.25;100.00;100960.78;5143109;27;20752;-47
2024/01/23 02:58:49;;;;;;;89.43;33.55;;;;;;;-0.24;100.00;100959.91;5142286;27;20111;-47
2024/01/23 03:01:18;;;;;;;87.63;32.85;;;;;;;-0.20;100.00;100959.00;5141837;27;20077;-46
2024/01/23 03:03:46;;;;;;;88.13;32.65;;;;;;;-0.16;100.00;100973.84;5142731;27;20039;-47
2024/01/23 03:06:15;;;;;;;90.78;32.30;;;;;;;-0.28;100.00;100973.91;5142421;27;20051;-48
2024/01/23 03:08:46;;;;;;;83.10;30.63;;;;;;;-0.22;100.00;100971.25;5141904;27;20069;-47
2024/01/23 03:11:17;;;;;;;83.18;32.78;;;;;;;-0.57;100.00;100975.78;5142208;27;20441;-48
2024/01/23 03:13:53;;;;;;;90.13;33.05;;;;;;;-0.48;100.00;100962.59;5141621;27;20047;-47
2024/01/23 03:16:21;;;;;;;88.72;32.22;;;;;;;-0.39;100.00;100965.19;5141025;27;20064;-47
2024/01/23 03:18:52;;;;;;;84.93;32.72;;;;;;;-0.45;100.00;100970.50;5140861;27;20043;-49
2024/01/23 03:21:21;;;;;;;90.47;31.98;;;;;;;-0.20;100.00;100963.38;5141812;27;20463;-48
2024/01/23 03:23:49;;;;;;;86.25;33.35;;;;;;;-0.27;100.00;100956.44;5141416;27;20075;-47
2024/01/23 03:26:17;;;;;;;86.57;33.78;;;;;;;-0.25;100.00;100950.28;5141715;27;20043;-46
2024/01/23 03:28:48;;;;;;;86.60;31.58;;;;;;;-0.41;100.00;100961.72;5140774;27;20062;-47
2024/01/23 03:31:18;;;;;;;88.70;32.22;;;;;;;-0.35;100.00;100965.19;5143059;27;20064;-47
2024/01/23 03:33:47;;;;;;;85.30;33.30;;;;;;;-0.25;100.00;100966.03;5142274;27;20191;-51
2024/01/23 03:36:15;;;;;;;85.05;32.47;;;;;;;-0.26;100.00;100961.66;5142032;27;20051;-49
2024/01/23 03:38:43;;;;;;;85.82;32.03;;;;;;;-0.10;100.00;100950.19;5141718;27;20074;-48
2024/01/23 03:41:12;;;;;;;82.97;32.28;;;;;;;-0.34;100.00;100958.19;5140881;27;20043;-47
2024/01/23 03:43:50;;;;;;;81.18;31.88;;;;;;;-0.66;100.00;100963.56;5140347;27;20059;-47
2024/01/23 03:46:20;;;;;;;87.57;32.45;;;;;;;-0.81;100.00;100953.13;5141080;27;20416;-47
2024/01/23 03:48:49;;;;;;;87.55;33.63;;;;;;;-0.64;100.00;100957.44;5140496;27;20062;-46
2024/01/23 03:51:17;;;;;;;86.03;33.20;;;;;;;-0.62;100.00;100945.19;5141131;27;20506;-48
2024/01/23 03:53:46;;;;;;;88.10;33.20;;;;;;;-0.56;100.00;100932.97;5141353;27;20043;-49
2024/01/23 03:56:14;;;;;;;90.45;34.15;;;;;;;-0.59;100.00;100928.59;5140770;27;20039;-48
2024/01/23 03:58:43;;;;;;;95.72;33.42;;;;;;;-0.63;100.00;100932.09;5139790;27;20051;-47
2024/01/23 04:01:11;;;;;;;96.22;35.33;;;;;;;-0.78;100.00;100948.75;5141715;27;20047;-47
2024/01/23 04:03:44;;;;;;;101.78;38.28;;;;;;;-0.57;100.00;100946.94;5142204;27;20062;-47
2024/01/23 04:06:12;;;;;;;102.05;36.53;;;;;;;-0.39;100.00;100944.22;5143484;27;20392;-47
2024/01/23 04:08:41;;;;;;;94.32;34.47;;;;;;;-0.31;100.00;100951.19;5144911;27;20062;-48
2024/01/23 04:11:09;;;;;;;92.68;35.20;;;;;;;-0.39;100.00;100945.09;5144264;27;20054;-47
2024/01/23 04:13:40;;;;;;;93.57;34.67;;;;;;;-0.63;100.00;100951.31;5143520;27;20039;-47
2024/01/23 04:16:09;;;;;;;93.43;35.40;;;;;;;-0.38;100.00;100954.72;5145255;27;20043;-49
2024/01/23 04:18:39;;;;;;;83.80;32.85;;;;;;;-0.77;100.00;100960.09;5143142;27;20047;-50
2024/01/23 04:21:10;;;;;;;88.10;33.65;;;;;;;-0.88;100.00;100965.34;5142536;27;20407;-48
2024/01/23 04:23:38;;;;;;;87.50;31.92;;;;;;;-0.62;100.00;100960.06;5142234;27;20111;-49
2024/01/23 04:26:07;;;;;;;78.88;30.63;;;;;;;-0.75;100.00;100961.84;5142457;27;20043;-48
2024/01/23 04:28:36;;;;;;;92.35;34.22;;;;;;;-0.90;100.00;100969.72;5141544;27;20078;-46
2024/01/23 04:31:05;;;;;;;90.88;32.88;;;;;;;-0.77;100.00;100974.09;5140537;27;20051;-47
2024/01/23 04:33:36;;;;;;;89.07;33.53;;;;;;;-0.71;100.00;100979.28;5140277;27;20071;-47
2024/01/23 04:36:06;;;;;;;86.72;33.28;;;;;;;-0.55;100.00;100971.41;5140912;27;20126;-47
2024/01/23 04:38:37;;;;;;;90.22;34.20;;;;;;;-0.64;100.00;100978.41;5140599;27;20051;-47
2024/01/23 04:41:05;;;;;;;89.15;32.88;;;;;;;-0.39;100.00;100983.53;5122143;27;20456;-47
2024/01/23 04:43:34;;;;;;;85.40;33.38;;;;;;;-0.36;100.00;100994.03;5139960;27;20062;-47
2024/01/23 04:46:06;;;;;;;95.53;34.38;;;;;;;-0.32;100.00;100993.13;5140088;27;20123;-48
2024/01/23 04:48:40;;;;;;;97.55;34.78;;;;;;;-0.28;100.00;100980.91;5139248;27;20051;-48
2024/01/23 04:51:09;;;;;;;87.50;33.85;;;;;;;-0.26;100.00;100979.16;5139008;27;20047;-48
2024/01/23 04:53:42;;;;;;;88.22;34.10;;;;;;;-0.22;100.00;100973.00;5141025;27;20050;-46
2024/01/23 04:56:10;;;;;;;87.25;33.45;;;;;;;-0.47;100.00;100986.22;5140741;27;20089;-46
2024/01/23 04:58:39;;;;;;;80.63;31.50;;;;;;;-0.27;100.00;101003.63;5141478;27;20047;-47
2024/01/23 05:01:10;;;;;;;79.70;33.63;;;;;;;-0.29;100.00;100993.13;5142125;27;20047;-46
2024/01/23 05:03:38;;;;;;;92.88;34.50;;;;;;;-0.33;100.00;100994.88;5142935;27;20100;-47
2024/01/23 05:06:07;;;;;;;85.93;34.03;;;;;;;-0.19;100.00;101001.81;5143510;27;20051;-47
2024/01/23 05:08:35;;;;;;;90.45;33.70;;;;;;;-0.25;100.00;100996.63;5142578;27;20043;-48
2024/01/23 05:11:05;;;;;;;90.75;34.72;;;;;;;-0.18;100.00;100993.97;5141810;27;20043;-47
2024/01/23 05:13:34;;;;;;;86.00;33.63;;;;;;;-0.21;100.00;100999.19;5141985;27;20050;-48
2024/01/23 05:16:03;;;;;;;85.10;33.45;;;;;;;-0.13;100.00;101000.03;5141117;27;20145;-47
2024/01/23 05:18:34;;;;;;;88.85;34.50;;;;;;;-0.09;100.00;101006.16;5139217;27;20050;-47
2024/01/23 05:21:03;;;;;;;84.10;32.85;;;;;;;0.00;100.00;101006.13;5140956;27;20515;-49
2024/01/23 05:23:32;;;;;;;86.25;33.05;;;;;;;0.09;100.00;100994.69;5140738;27;20095;-47
2024/01/23 05:26:01;;;;;;;90.10;34.42;;;;;;;0.13;100.00;100989.44;5140018;27;20120;-48
2024/01/23 05:28:30;;;;;;;83.15;34.15;;;;;;;0.11;100.00;100995.56;5139802;27;20079;-48
2024/01/23 05:31:02;;;;;;;83.18;33.67;;;;;;;0.10;100.00;100993.84;5141408;27;20070;-47
2024/01/23 05:33:31;;;;;;;85.40;32.58;;;;;;;0.08;100.00;100998.19;5139116;27;20077;-47
2024/01/23 05:36:00;;;;;;;85.63;32.13;;;;;;;-0.17;100.00;101000.94;5138485;27;20043;-48
2024/01/23 05:38:28;;;;;;;79.47;32.55;;;;;;;0.01;100.00;100996.50;5138326;27;20047;-48
2024/01/23 05:40:56;;;;;;;81.50;32.55;;;;;;;-0.01;100.00;100994.72;5140085;27;20047;-47
2024/01/23 05:43:24;;;;;;;89.32;34.53;;;;;;;-0.07;100.00;100996.53;5141036;27;20043;-49
2024/01/23 05:45:57;;;;;;;85.10;30.98;;;;;;;0.08;100.00;101004.31;5139246;27;20050;-48
2024/01/23 05:48:25;;;;;;;83.43;33.45;;;;;;;0.12;100.00;101007.81;5139919;27;20460;-54
2024/01/23 05:50:56;;;;;;;89.00;33.67;;;;;;;0.18;100.00;101003.38;5140415;27;20047;-49
2024/01/23 05:53:27;;;;;;;82.03;33.85;;;;;;;0.23;100.00;101011.25;5138334;27;20047;-47
2024/01/23 05:55:56;;;;;;;91.07;34.35;;;;;;;0.19;100.00;101028.75;5139042;27;20084;-48
2024/01/23 05:58:24;;;;;;;90.30;34.88;;;;;;;0.21;100.00;101028.75;5139296;27;20046;-50
2024/01/23 06:00:52;;;;;;;89.05;34.20;;;;;;;0.27;100.00;101029.56;5137494;27;20068;-48
2024/01/23 06:03:25;;;;;;;87.93;32.28;;;;;;;0.25;100.00;101036.56;5137765;27;20054;-46
2024/01/23 06:05:53;;;;;;;78.60;33.15;;;;;;;0.26;100.00;101043.56;5137938;27;20054;-48
2024/01/23 06:08:22;;;;;;;84.15;32.75;;;;;;;0.32;100.00;101055.78;5134641;27;20051;-47
2024/01/23 06:10:50;;;;;;;79.20;31.83;;;;;;;0.32;100.00;101045.31;5133996;27;20126;-49
2024/01/23 06:13:18;;;;;;;83.22;32.65;;;;;;;0.27;100.00;101050.56;5133269;27;20050;-46
2024/01/23 06:15:47;;;;;;;93.18;33.60;;;;;;;0.27;100.00;101047.94;5134022;27;20055;-46
2024/01/23 06:18:16;;;;;;;82.93;32.85;;;;;;;0.28;100.00;101059.28;5133567;27;20043;-48
2024/01/23 06:20:46;;;;;;;81.50;32.15;;;;;;;0.34;100.00;101071.53;5133458;27;20489;-48
2024/01/23 06:23:14;;;;;;;88.47;33.13;;;;;;;0.37;100.00;101082.00;5133620;27;20054;-46
2024/01/23 06:25:42;;;;;;;85.28;32.70;;;;;;;0.35;100.00;101087.25;5128992;27;20039;-46
2024/01/23 06:28:14;;;;;;;84.75;33.17;;;;;;;0.43;100.00;101085.47;5132414;28;20047;-47
2024/01/23 06:30:42;;;;;;;83.72;31.85;;;;;;;0.41;100.00;101066.25;5132763;27;20043;-47
2024/01/23 06:33:12;;;;;;;84.18;34.22;;;;;;;0.41;100.00;101079.38;5134392;28;20055;-47
2024/01/23 06:35:41;;;;;;;85.78;31.30;;;;;;;0.46;100.00;101082.81;5133647;28;20043;-47
2024/01/23 06:38:16;;;;;;;80.95;31.60;;;;;;;0.43;100.00;101088.09;5134354;28;20042;-47
2024/01/23 06:40:45;;;;;;;;;;;;;;;0.46;100.00;101095.06;5134667;28;20047;-46
2024/01/23 06:43:13;;;;;;;80.10;31.48;;;;;;;0.50;100.00;101097.69;5135136;27;19926;-48
2024/01/23 06:45:44;;;;;;;82.72;31.75;;;;;;;0.52;100.00;101088.06;5134064;28;20507;-50
2024/01/23 06:48:13;;;;;;;88.97;34.42;;;;;;;0.56;100.00;101088.88;5134130;28;20450;-47
2024/01/23 06:50:46;;;;;;;81.88;32.70;;;;;;;0.62;100.00;101091.50;5132609;27;20054;-47
2024/01/23 06:53:15;;;;;;;86.47;33.38;;;;;;;0.65;100.00;101093.22;5132863;28;20131;-48
2024/01/23 06:55:45;;;;;;;78.40;31.77;;;;;;;0.66;100.00;101092.34;5133850;28;20251;-48
2024/01/23 06:58:13;;;;;;;76.93;32.58;;;;;;;0.71;100.00;101107.19;5133726;28;20039;-47
2024/01/23 07:00:45;;;;;;;78.20;32.80;;;;;;;0.77;100.00;101112.41;5133194;27;20043;-49
2024/01/23 07:03:13;;;;;;;79.15;31.73;;;;;;;0.75;100.00;101106.28;5133704;28;20442;-48
2024/01/23 07:05:46;;;;;;;;;;;;;;;0.77;100.00;101116.75;5133292;27;20076;-48
2024/01/23 07:08:16;;;;;;;88.32;32.28;;;;;;;0.81;100.00;101123.75;5132372;27;20295;-48
2024/01/23 07:10:45;;;;;;;79.00;31.33;;;;;;;0.84;100.00;101131.59;5132881;28;20047;-47
2024/01/23 07:13:14;;;;;;;80.25;32.80;;;;;;;0.84;100.00;101147.38;5132473;27;20441;-49
2024/01/23 07:15:42;;;;;;;78.03;31.75;;;;;;;0.85;100.00;101142.09;5132847;28;20050;-48
2024/01/23 07:18:12;;;;;;;79.88;32.47;;;;;;;0.94;100.00;101158.69;5133337;28;20390;-49
2024/01/23 07:20:42;;;;;;;79.63;31.95;;;;;;;1.04;100.00;101163.00;5132610;27;20051;-48
2024/01/23 07:23:13;;;;;;;87.75;33.65;;;;;;;1.07;100.00;101156.00;5132764;27;20134;-48
2024/01/23 07:25:45;;;;;;;81.15;33.90;;;;;;;1.13;100.00;101150.66;5132191;27;20039;-46
2024/01/23 07:28:14;;;;;;;80.10;33.03;;;;;;;1.08;100.00;101141.97;5132076;28;20545;-49
2024/01/23 07:31:05;;;;;;;81.97;32.92;;;;;;;1.10;100.00;101152.47;5134124;27;20095;-47
2024/01/23 07:33:36;;;;;;;81.30;34.38;;;;;;;1.20;100.00;101151.50;5135880;27;20047;-47
2024/01/23 07:36:09;;;;;;;76.63;32.33;;;;;;;1.14;100.00;101149.78;5137046;27;20077;-48
2024/01/23 07:38:38;;;;;;;79.65;33.25;;;;;;;1.20;100.00;101145.38;5135740;27;20046;-47
2024/01/23 07:41:08;;;;;;;80.53;32.80;;;;;;;1.20;100.00;101145.38;5134591;27;20518;-50
2024/01/23 07:43:39;;;;;;;77.13;34.30;;;;;;;1.27;100.00;101147.09;5135118;27;20053;-48
2024/01/23 07:46:07;;;;;;;80.53;34.20;;;;;;;1.21;100.00;101142.75;5135261;27;20051;-48
2024/01/23 07:48:36;;;;;;;77.82;33.70;;;;;;;1.22;100.00;101136.59;5134566;27;20070;-48
2024/01/23 07:51:07;;;;;;;84.38;33.40;;;;;;;1.27;100.00;101147.97;5135233;27;20092;-46
2024/01/23 07:53:36;;;;;;;77.40;32.95;;;;;;;1.10;100.00;101148.06;5134792;27;20096;-50
2024/01/23 07:56:05;;;;;;;78.55;33.38;;;;;;;1.03;100.00;101158.63;5135328;27;20461;-50
2024/01/23 07:58:37;;;;;;;86.63;34.88;;;;;;;1.12;100.00;101132.28;5135569;27;20054;-47
2024/01/23 08:01:06;;;;;;;93.28;38.33;;;;;;;1.01;100.00;101129.75;5134956;27;20047;-48
2024/01/23 08:03:34;;;;;;;88.05;35.50;;;;;;;0.88;100.00;101122.84;5135185;27;20055;-47
2024/01/23 08:06:05;;;;;;;88.13;37.17;;;;;;;0.88;100.00;101135.97;5134841;27;20058;-49
2024/01/23 08:08:34;;;;;;;90.53;36.78;;;;;;;0.99;100.00;101135.91;5135178;27;20146;-48
2024/01/23 08:11:02;;;;;;;94.00;35.40;;;;;;;1.00;100.00;101154.28;5135097;27;20043;-49
2024/01/23 08:13:33;;;;;;;95.10;36.58;;;;;;;1.14;100.00;101156.78;5135029;27;20063;-46
2024/01/23 08:16:08;;;;;;;89.68;34.83;;;;;;;1.26;100.00;101169.00;5134826;27;20510;-48
2024/01/23 08:18:37;;;;;;;91.43;36.28;;;;;;;1.30;100.00;101179.47;5134384;27;20090;-47
2024/01/23 08:21:07;;;;;;;90.15;35.95;;;;;;;1.38;100.00;101184.66;5134746;27;20090;-47
2024/01/23 08:23:40;;;;;;;89.38;35.25;;;;;;;1.48;100.00;101194.22;5134770;27;20154;-50
2024/01/23 08:26:09;;;;;;;80.10;34.20;;;;;;;1.61;100.00;101192.38;5134762;27;20048;-46
2024/01/23 08:28:48;;;;;;;91.47;36.55;;;;;;;1.72;100.00;101186.13;5134339;27;20087;-48
2024/01/23 08:31:21;;;;;;;86.28;35.40;;;;;;;1.72;100.00;101194.00;5134684;27;20051;-48
2024/01/23 08:33:49;;;;;;;83.07;35.60;;;;;;;1.77;100.00;101191.34;5134352;27;20078;-47
2024/01/23 08:36:17;;;;;;;79.82;34.38;;;;;;;1.88;100.00;101199.13;5134634;27;20058;-47
2024/01/23 08:38:46;;;;;;;85.05;34.47;;;;;;;2.00;100.00;101193.75;5134598;27;20079;-47
2024/01/23 08:41:17;;;;;;;82.20;35.47;;;;;;;2.09;100.00;101193.66;5133616;27;20055;-48
2024/01/23 08:43:45;;;;;;;80.03;34.75;;;;;;;2.01;100.00;101199.00;5134331;27;20051;-44
2024/01/23 08:46:19;;;;;;;78.65;33.40;;;;;;;2.05;100.00;101197.22;5133952;27;20051;-45
2024/01/23 08:48:50;;;;;;;81.13;33.70;;;;;;;2.09;100.00;101206.81;5133785;27;20058;-45
2024/01/23 08:51:21;;;;;;;86.68;36.35;;;;;;;2.05;100.00;101197.22;5134463;27;20099;-47
2024/01/23 08:53:52;;;;;;;78.97;35.90;;;;;;;2.16;100.00;101202.38;5134523;27;20046;-45
2024/01/23 08:56:21;;;;;;;86.57;36.90;;;;;;;2.19;100.00;101205.81;5134412;27;20464;-44
2024/01/23 08:58:49;;;;;;;88.53;36.25;;;;;;;2.20;100.00;101204.94;5134304;27;20433;-44
2024/01/23 09:01:19;;;;;;;82.00;35.28;;;;;;;2.15;100.00;101201.50;5133744;27;20605;-45
2024/01/23 09:03:48;;;;;;;86.47;36.55;;;;;;;1.99;100.00;101203.41;5133414;27;20047;-49
2024/01/23 09:06:17;;;;;;;78.85;36.58;;;;;;;1.88;100.00;101204.41;5134364;27;20047;-44
2024/01/23 09:08:45;;;;;;;87.88;36.53;;;;;;;1.96;100.00;101213.09;5134156;27;20050;-45
2024/01/23 09:11:13;;;;;;;85.22;36.75;;;;;;;1.96;100.00;101202.56;5134041;27;20078;-45
2024/01/23 09:13:42;;;;;;;87.97;36.63;;;;;;;2.03;100.00;101199.00;5134335;27;20200;-45
2024/01/23 09:16:10;;;;;;;89.25;38.78;;;;;;;2.14;100.00;101204.16;5134760;27;20043;-47
2024/01/23 09:18:40;;;;;;;80.80;37.50;;;;;;;2.13;100.00;101199.78;5134113;27;20074;-46
2024/01/23 09:21:09;;;;;;;87.20;37.90;;;;;;;1.91;100.00;101209.63;5133810;27;20071;-44
2024/01/23 09:23:39;;;;;;;87.60;37.58;;;;;;;2.03;100.00;101204.25;5133649;27;20134;-46
2024/01/23 09:26:08;;;;;;;87.10;37.65;;;;;;;2.04;100.00;101213.91;5133666;27;20043;-46
2024/01/23 09:28:36;;;;;;;89.07;37.13;;;;;;;2.13;100.00;101207.66;5134113;27;20158;-47
2024/01/23 09:31:04;;;;;;;92.07;37.67;;;;;;;2.10;100.00;101207.69;5135957;27;20043;-46
2024/01/23 09:33:32;;;;;;;93.25;38.58;;;;;;;2.02;100.00;101202.50;5135296;27;20051;-50
2024/01/23 09:36:03;;;;;;;91.90;39.08;;;;;;;2.05;100.00;101212.13;5134324;27;20126;-45
2024/01/23 09:38:35;;;;;;;92.45;38.78;;;;;;;2.12;100.00;101217.31;5133170;27;20043;-50
2024/01/23 09:41:11;;;;;;;89.05;39.38;;;;;;;2.26;100.00;101218.03;5132852;27;20082;-46
2024/01/23 09:43:46;;;;;;;90.07;38.13;;;;;;;2.27;100.00;101213.66;5133148;27;20043;-45
2024/01/23 09:46:15;;;;;;;86.18;38.10;;;;;;;2.50;100.00;101210.75;5131712;27;20047;-44
2024/01/23 09:48:45;;;;;;;84.82;37.67;;;;;;;2.67;100.00;101203.50;5132986;27;20039;-44
2024/01/23 09:51:18;;;;;;;88.95;38.55;;;;;;;2.67;100.00;101203.50;5132637;27;20054;-45
2024/01/23 09:53:47;;;;;;;88.53;38.42;;;;;;;2.70;100.00;101213.13;5131873;27;20039;-46
2024/01/23 09:56:16;;;;;;;83.80;37.58;;;;;;;2.55;100.00;101198.41;5133001;27;20054;-46
2024/01/23 09:58:44;;;;;;;89.18;39.00;;;;;;;2.45;100.00;101195.00;5132861;27;20050;-45
2024/01/23 10:01:13;;;;;;;90.85;38.38;;;;;;;2.32;100.00;101192.53;5132889;27;20057;-46
2024/01/23 10:03:48;;;;;;;88.15;39.17;;;;;;;2.32;100.00;101205.69;5132900;27;20138;-45
2024/01/23 10:06:21;;;;;;;85.88;38.00;;;;;;;2.67;100.00;101197.38;5132611;27;20573;-45
2024/01/23 10:08:49;;;;;;;84.50;37.75;;;;;;;2.83;100.00;101198.94;5132482;27;20050;-46
2024/01/23 10:11:20;;;;;;;65.25;29.80;;;;;;;3.33;100.00;101200.81;5132819;27;20054;-44
2024/01/23 10:13:48;;;;;;;78.15;35.08;;;;;;;4.48;100.00;101206.72;5133026;27;20039;-48
2024/01/23 10:16:17;;;;;;;77.30;35.63;;;;;;;3.46;100.00;101206.78;5132372;27;20059;-45
2024/01/23 10:18:48;;;;;;;86.93;36.92;;;;;;;3.01;100.00;101205.72;5133291;27;20532;-45
2024/01/23 10:21:21;;;;;;;77.40;36.63;;;;;;;2.79;100.00;101200.72;5132964;27;20049;-45
2024/01/23 10:23:52;;;;;;;89.68;39.75;;;;;;;2.77;100.00;101199.88;5133028;27;20096;-46
2024/01/23 10:26:21;;;;;;;82.55;37.35;;;;;;;2.71;100.00;101194.69;5132630;27;20066;-45
2024/01/23 10:28:49;;;;;;;78.68;37.53;;;;;;;2.70;100.00;101198.22;5132469;27;20075;-45
2024/01/23 10:31:17;;;;;;;88.38;38.80;;;;;;;2.76;100.00;101202.53;5133698;27;20050;-59
2024/01/23 10:33:46;;;;;;;89.45;40.88;;;;;;;2.76;100.00;101198.13;5132627;27;20039;-47
2024/01/23 10:36:17;;;;;;;86.40;40.30;;;;;;;2.77;100.00;101191.97;5133463;28;20047;-45
2024/01/23 10:38:50;;;;;;;91.13;39.72;;;;;;;2.73;100.00;101197.31;5129138;28;20069;-45
2024/01/23 10:41:19;;;;;;;91.97;39.55;;;;;;;2.99;100.00;101194.28;5130872;27;20075;-53
2024/01/23 10:43:53;;;;;;;93.28;39.72;;;;;;;2.90;100.00;101184.78;5131215;28;20054;-45
2024/01/23 10:46:23;;;;;;;87.35;40.10;;;;;;;2.87;100.00;101183.03;5131282;28;20333;-45
2024/01/23 10:48:52;;;;;;;90.70;38.60;;;;;;;3.10;100.00;101177.47;5131023;28;20051;-45
2024/01/23 10:51:21;;;;;;;85.97;37.50;;;;;;;3.07;100.00;101171.34;5129976;27;20051;-50
2024/01/23 10:53:57;;;;;;;81.97;37.85;;;;;;;3.37;100.00;101168.22;5131787;27;20043;-44
2024/01/23 10:56:30;;;;;;;81.63;36.40;;;;;;;3.56;100.00;101170.56;5131400;27;20074;-45
2024/01/23 10:59:01;;;;;;;74.90;35.08;;;;;;;3.67;100.00;101168.66;5130746;27;20043;-45
2024/01/23 11:01:40;;;;;;;82.55;35.85;;;;;;;3.71;100.00;101165.03;5130516;28;20047;-45
2024/01/23 11:04:08;;;;;;;;;;;;;;;3.62;100.00;101170.47;5131617;27;20392;-45
2024/01/23 11:06:50;;;;;;;72.55;34.72;;;;;;;3.82;100.00;101176.28;5134110;27;19973;-44
2024/01/23 11:09:27;;;;;;;73.28;33.42;;;;;;;3.95;100.00;101164.59;5127599;27;20055;-46
2024/01/23 11:12:04;;;;;;;72.13;33.13;;;;;;;3.99;100.00;101162.78;5133699;27;20532;-45
2024/01/23 11:14:44;;;;;;;67.18;32.38;;;;;;;4.04;100.00;101158.25;5134538;27;20070;-45
2024/01/23 11:17:14;;;;;;;69.60;33.17;;;;;;;4.21;100.00;101156.19;5134283;27;20043;-44
2024/01/23 11:19:43;;;;;;;70.55;32.60;;;;;;;4.24;100.00;101157.88;5133836;27;20426;-45